sensor_id;sensor_type;location;lat;lon;timestamp;temperature;humidity
42743;DHT22;28397;44.552;-0.848;2024-03-23T00:55:42;14.00;99.90
42743;DHT22;28397;44.552;-0.848;2024-03-23T00:58:08;14.00;99.90
42743;DHT22;28397;44.552;-0.848;2024-03-23T01:00:34;14.00;99.90
42743;DHT22;28397;44.552;-0.848;2024-03-23T01:02:59;14.10;99.90
42743;DHT22;28397;44.552;-0.848;2024-03-23T01:05:25;14.30;99.90
42743;DHT22;28397;44.552;-0.848;2024-03-23T01:07:51;14.40;99.90
42743;DHT22;28397;44.552;-0.848;2024-03-23T01:10:16;14.60;99.90
42743;DHT22;28397;44.552;-0.848;2024-03-23T01:12:42;14.60;99.90
42743;DHT22;28397;44.552;-0.848;2024-03-23T01:15:08;14.60;99.90
42743;DHT22;28397;44.552;-0.848;2024-03-23T01:17:34;14.70;99.90
42743;DHT22;28397;44.552;-0.848;2024-03-23T01:19:59;14.60;99.90
42743;DHT22;28397;44.552;-0.848;2024-03-23T01:22:25;14.70;99.90
42743;DHT22;28397;44.552;-0.848;2024-03-23T01:24:51;14.60;99.90
42743;DHT22;28397;44.552;-0.848;2024-03-23T01:27:16;14.40;99.90
42743;DHT22;28397;44.552;-0.848;2024-03-23T01:29:42;14.20;99.90
42743;DHT22;28397;44.552;-0.848;2024-03-23T01:32:08;14.10;99.90
42743;DHT22;28397;44.552;-0.848;2024-03-23T01:34:33;14.00;99.90
42743;DHT22;28397;44.552;-0.848;2024-03-23T01:36:59;14.00;99.90
42743;DHT22;28397;44.552;-0.848;2024-03-23T01:39:25;13.90;99.90
42743;DHT22;28397;44.552;-0.848;2024-03-23T01:41:51;13.90;99.90
42743;DHT22;28397;44.552;-0.848;2024-03-23T01:44:16;13.80;99.90
42743;DHT22;28397;44.552;-0.848;2024-03-23T01:46:43;13.80;99.90
42743;DHT22;28397;44.552;-0.848;2024-03-23T01:49:09;13.60;99.90
42743;DHT22;28397;44.552;-0.848;2024-03-23T01:51:36;13.60;99.90
42743;DHT22;28397;44.552;-0.848;2024-03-23T01:54:03;13.50;99.90
42743;DHT22;28397;44.552;-0.848;2024-03-23T01:56:31;13.60;99.90
42743;DHT22;28397;44.552;-0.848;2024-03-23T01:59:06;13.60;99.90
42743;DHT22;28397;44.552;-0.848;2024-03-23T02:01:33;13.50;99.90
42743;DHT22;28397;44.552;-0.848;2024-03-23T02:04:01;13.40;99.90
42743;DHT22;28397;44.552;-0.848;2024-03-23T02:06:27;13.40;99.90
42743;DHT22;28397;44.552;-0.848;2024-03-23T02:08:54;13.40;99.90
42743;DHT22;28397;44.552;-0.848;2024-03-23T02:11:20;13.40;99.90
42743;DHT22;28397;44.552;-0.848;2024-03-23T02:13:46;13.30;99.90
42743;DHT22;28397;44.552;-0.848;2024-03-23T02:16:12;13.30;99.90
42743;DHT22;28397;44.552;-0.848;2024-03-23T02:18:38;13.30;99.90
42743;DHT22;28397;44.552;-0.848;2024-03-23T02:21:04;13.30;99.90
42743;DHT22;28397;44.552;-0.848;2024-03-23T02:23:30;13.30;99.90
42743;DHT22;28397;44.552;-0.848;2024-03-23T02:25:55;13.30;99.90
42743;DHT22;28397;44.552;-0.848;2024-03-23T02:28:21;13.30;99.90
42743;DHT22;28397;44.552;-0.848;2024-03-23T02:30:49;13.20;99.90
42743;DHT22;28397;44.552;-0.848;2024-03-23T02:33:14;13.20;99.90
42743;DHT22;28397;44.552;-0.848;2024-03-23T02:35:40;13.30;99.90
42743;DHT22;28397;44.552;-0.848;2024-03-23T02:38:06;13.30;99.90
42743;DHT22;28397;44.552;-0.848;2024-03-23T02:40:32;13.20;99.90
42743;DHT22;28397;44.552;-0.848;2024-03-23T02:42:57;13.40;99.90
42743;DHT22;28397;44.552;-0.848;2024-03-23T02:45:23;13.50;99.90
42743;DHT22;28397;44.552;-0.848;2024-03-23T02:47:49;13.70;99.90
42743;DHT22;28397;44.552;-0.848;2024-03-23T02:50:20;13.90;99.90
42743;DHT22;28397;44.552;-0.848;2024-03-23T02:52:47;13.90;99.90
42743;DHT22;28397;44.552;-0.848;2024-03-23T02:55:12;13.90;99.90
42743;DHT22;28397;44.552;-0.848;2024-03-23T02:57:38;14.00;99.90
42743;DHT22;28397;44.552;-0.848;2024-03-23T03:00:05;13.90;99.90
42743;DHT22;28397;44.552;-0.848;2024-03-23T03:02:31;13.90;99.90
42743;DHT22;28397;44.552;-0.848;2024-03-23T03:04:57;13.90;99.90
42743;DHT22;28397;44.552;-0.848;2024-03-23T03:07:23;13.70;99.90
42743;DHT22;28397;44.552;-0.848;2024-03-23T03:09:49;13.50;99.90
42743;DHT22;28397;44.552;-0.848;2024-03-23T03:12:14;13.30;99.90
42743;DHT22;28397;44.552;-0.848;2024-03-23T03:14:40;13.40;99.90
42743;DHT22;28397;44.552;-0.848;2024-03-23T03:17:06;13.30;99.90
42743;DHT22;28397;44.552;-0.848;2024-03-23T03:19:32;13.20;99.90
42743;DHT22;28397;44.552;-0.848;2024-03-23T03:21:58;13.10;99.90
42743;DHT22;28397;44.552;-0.848;2024-03-23T03:24:23;13.10;99.90
42743;DHT22;28397;44.552;-0.848;2024-03-23T03:26:49;13.00;99.90
42743;DHT22;28397;44.552;-0.848;2024-03-23T03:29:15;13.00;99.90
42743;DHT22;28397;44.552;-0.848;2024-03-23T03:31:42;13.00;99.90
42743;DHT22;28397;44.552;-0.848;2024-03-23T03:34:08;13.00;99.90
42743;DHT22;28397;44.552;-0.848;2024-03-23T03:36:33;12.90;99.90
42743;DHT22;28397;44.552;-0.848;2024-03-23T03:38:59;12.90;99.90
42743;DHT22;28397;44.552;-0.848;2024-03-23T03:41:25;12.90;99.90
42743;DHT22;28397;44.552;-0.848;2024-03-23T03:43:51;12.90;99.90
42743;DHT22;28397;44.552;-0.848;2024-03-23T03:46:17;12.70;99.90
42743;DHT22;28397;44.552;-0.848;2024-03-23T03:48:42;12.80;99.90
42743;DHT22;28397;44.552;-0.848;2024-03-23T03:51:10;12.70;99.90
42743;DHT22;28397;44.552;-0.848;2024-03-23T03:53:36;12.80;99.90
42743;DHT22;28397;44.552;-0.848;2024-03-23T03:56:02;12.60;99.90
42743;DHT22;28397;44.552;-0.848;2024-03-23T03:58:28;12.60;99.90
42743;DHT22;28397;44.552;-0.848;2024-03-23T04:00:54;12.60;99.90
42743;DHT22;28397;44.552;-0.848;2024-03-23T04:03:19;12.50;99.90
42743;DHT22;28397;44.552;-0.848;2024-03-23T04:05:54;12.60;99.90
42743;DHT22;28397;44.552;-0.848;2024-03-23T04:08:21;12.60;99.90
42743;DHT22;28397;44.552;-0.848;2024-03-23T04:10:46;12.50;99.90
42743;DHT22;28397;44.552;-0.848;2024-03-23T04:13:13;12.50;99.90
42743;DHT22;28397;44.552;-0.848;2024-03-23T04:15:39;12.50;99.90
42743;DHT22;28397;44.552;-0.848;2024-03-23T04:18:05;12.50;99.90
42743;DHT22;28397;44.552;-0.848;2024-03-23T04:20:30;12.50;99.90
42743;DHT22;28397;44.552;-0.848;2024-03-23T04:22:58;12.50;99.90
42743;DHT22;28397;44.552;-0.848;2024-03-23T04:25:23;12.70;99.90
42743;DHT22;28397;44.552;-0.848;2024-03-23T04:27:49;12.90;99.90
42743;DHT22;28397;44.552;-0.848;2024-03-23T04:30:15;12.90;99.90
42743;DHT22;28397;44.552;-0.848;2024-03-23T04:32:41;13.00;99.90
42743;DHT22;28397;44.552;-0.848;2024-03-23T04:35:07;13.00;99.90
42743;DHT22;28397;44.552;-0.848;2024-03-23T04:37:37;13.10;99.90
42743;DHT22;28397;44.552;-0.848;2024-03-23T04:40:04;13.00;99.90
42743;DHT22;28397;44.552;-0.848;2024-03-23T04:42:30;13.10;99.90
42743;DHT22;28397;44.552;-0.848;2024-03-23T04:44:56;13.20;99.90
42743;DHT22;28397;44.552;-0.848;2024-03-23T04:47:22;12.90;99.90
42743;DHT22;28397;44.552;-0.848;2024-03-23T04:49:48;12.80;99.90
42743;DHT22;28397;44.552;-0.848;2024-03-23T04:52:14;12.50;99.90
42743;DHT22;28397;44.552;-0.848;2024-03-23T04:54:40;12.40;99.90
42743;DHT22;28397;44.552;-0.848;2024-03-23T04:57:06;12.40;99.90
42743;DHT22;28397;44.552;-0.848;2024-03-23T04:59:32;12.20;99.90
42743;DHT22;28397;44.552;-0.848;2024-03-23T05:01:59;12.20;99.90
42743;DHT22;28397;44.552;-0.848;2024-03-23T05:04:25;12.20;99.90
42743;DHT22;28397;44.552;-0.848;2024-03-23T05:06:51;12.30;99.90
42743;DHT22;28397;44.552;-0.848;2024-03-23T05:09:16;12.30;99.90
42743;DHT22;28397;44.552;-0.848;2024-03-23T05:11:42;12.20;99.90
42743;DHT22;28397;44.552;-0.848;2024-03-23T05:14:08;12.20;99.90
42743;DHT22;28397;44.552;-0.848;2024-03-23T05:16:34;12.10;99.90
42743;DHT22;28397;44.552;-0.848;2024-03-23T05:18:59;12.20;99.90
42743;DHT22;28397;44.552;-0.848;2024-03-23T05:21:26;12.10;99.90
42743;DHT22;28397;44.552;-0.848;2024-03-23T05:23:53;12.10;99.90
42743;DHT22;28397;44.552;-0.848;2024-03-23T05:26:19;12.00;99.90
42743;DHT22;28397;44.552;-0.848;2024-03-23T05:28:44;12.10;99.90
42743;DHT22;28397;44.552;-0.848;2024-03-23T05:31:10;12.00;99.90
42743;DHT22;28397;44.552;-0.848;2024-03-23T05:33:36;12.00;99.90
42743;DHT22;28397;44.552;-0.848;2024-03-23T05:36:04;12.00;99.90
42743;DHT22;28397;44.552;-0.848;2024-03-23T05:38:30;11.90;99.90
42743;DHT22;28397;44.552;-0.848;2024-03-23T05:40:59;11.80;99.90
42743;DHT22;28397;44.552;-0.848;2024-03-23T05:43:26;11.70;99.90
42743;DHT22;28397;44.552;-0.848;2024-03-23T05:45:59;11.60;99.90
42743;DHT22;28397;44.552;-0.848;2024-03-23T05:48:28;11.60;99.90
42743;DHT22;28397;44.552;-0.848;2024-03-23T05:50:56;11.50;99.90
42743;DHT22;28397;44.552;-0.848;2024-03-23T05:53:22;11.50;99.90
42743;DHT22;28397;44.552;-0.848;2024-03-23T05:55:49;11.40;99.90
42743;DHT22;28397;44.552;-0.848;2024-03-23T05:58:16;11.50;99.90
42743;DHT22;28397;44.552;-0.848;2024-03-23T06:00:43;11.50;99.90
42743;DHT22;28397;44.552;-0.848;2024-03-23T06:03:09;11.40;99.90
42743;DHT22;28397;44.552;-0.848;2024-03-23T06:05:36;11.50;99.90
42743;DHT22;28397;44.552;-0.848;2024-03-23T06:08:02;11.70;99.90
42743;DHT22;28397;44.552;-0.848;2024-03-23T06:10:28;12.00;99.90
42743;DHT22;28397;44.552;-0.848;2024-03-23T06:12:53;12.00;99.90
42743;DHT22;28397;44.552;-0.848;2024-03-23T06:15:20;12.10;99.90
42743;DHT22;28397;44.552;-0.848;2024-03-23T06:17:45;12.20;99.90
42743;DHT22;28397;44.552;-0.848;2024-03-23T06:20:12;12.20;99.90
42743;DHT22;28397;44.552;-0.848;2024-03-23T06:22:38;12.20;99.90
42743;DHT22;28397;44.552;-0.848;2024-03-23T06:25:04;12.20;99.90
42743;DHT22;28397;44.552;-0.848;2024-03-23T06:27:30;12.10;99.90
42743;DHT22;28397;44.552;-0.848;2024-03-23T06:29:57;11.90;99.90
42743;DHT22;28397;44.552;-0.848;2024-03-23T06:32:23;11.70;99.90
42743;DHT22;28397;44.552;-0.848;2024-03-23T06:34:49;11.60;99.90
42743;DHT22;28397;44.552;-0.848;2024-03-23T06:37:15;11.50;99.90
42743;DHT22;28397;44.552;-0.848;2024-03-23T06:39:40;11.30;99.90
42743;DHT22;28397;44.552;-0.848;2024-03-23T06:42:06;11.20;99.90
42743;DHT22;28397;44.552;-0.848;2024-03-23T06:44:34;11.20;99.90
42743;DHT22;28397;44.552;-0.848;2024-03-23T06:47:00;11.10;99.90
42743;DHT22;28397;44.552;-0.848;2024-03-23T06:49:25;11.20;99.90
42743;DHT22;28397;44.552;-0.848;2024-03-23T06:51:51;11.30;99.90
42743;DHT22;28397;44.552;-0.848;2024-03-23T06:54:20;11.10;99.90
42743;DHT22;28397;44.552;-0.848;2024-03-23T06:56:46;11.10;99.90
42743;DHT22;28397;44.552;-0.848;2024-03-23T06:59:12;11.10;99.90
42743;DHT22;28397;44.552;-0.848;2024-03-23T07:01:37;11.00;99.90
42743;DHT22;28397;44.552;-0.848;2024-03-23T07:04:04;11.10;99.90
42743;DHT22;28397;44.552;-0.848;2024-03-23T07:06:32;11.00;99.90
42743;DHT22;28397;44.552;-0.848;2024-03-23T07:08:58;11.00;99.90
42743;DHT22;28397;44.552;-0.848;2024-03-23T07:11:24;10.90;99.90
42743;DHT22;28397;44.552;-0.848;2024-03-23T07:13:50;10.90;99.90
42743;DHT22;28397;44.552;-0.848;2024-03-23T07:16:17;10.90;99.90
42743;DHT22;28397;44.552;-0.848;2024-03-23T07:18:43;10.90;99.90
42743;DHT22;28397;44.552;-0.848;2024-03-23T07:21:09;10.90;99.90
42743;DHT22;28397;44.552;-0.848;2024-03-23T07:23:34;11.00;99.90
42743;DHT22;28397;44.552;-0.848;2024-03-23T07:26:02;10.90;99.90
42743;DHT22;28397;44.552;-0.848;2024-03-23T07:28:28;10.90;99.90
42743;DHT22;28397;44.552;-0.848;2024-03-23T07:31:05;10.90;99.90
42743;DHT22;28397;44.552;-0.848;2024-03-23T07:33:31;10.90;99.90
42743;DHT22;28397;44.552;-0.848;2024-03-23T07:35:57;11.00;99.90
42743;DHT22;28397;44.552;-0.848;2024-03-23T07:38:25;11.00;99.90
42743;DHT22;28397;44.552;-0.848;2024-03-23T07:40:51;11.00;99.90
42743;DHT22;28397;44.552;-0.848;2024-03-23T07:43:24;11.00;99.90
42743;DHT22;28397;44.552;-0.848;2024-03-23T07:45:52;11.10;99.90
42743;DHT22;28397;44.552;-0.848;2024-03-23T07:48:18;11.00;99.90
42743;DHT22;28397;44.552;-0.848;2024-03-23T07:50:44;11.10;99.90
42743;DHT22;28397;44.552;-0.848;2024-03-23T07:53:10;11.40;99.90
42743;DHT22;28397;44.552;-0.848;2024-03-23T07:55:35;11.80;99.90
42743;DHT22;28397;44.552;-0.848;2024-03-23T07:58:01;12.10;99.90
42743;DHT22;28397;44.552;-0.848;2024-03-23T08:00:27;12.20;99.90
42743;DHT22;28397;44.552;-0.848;2024-03-23T08:02:52;12.20;99.90
42743;DHT22;28397;44.552;-0.848;2024-03-23T08:05:18;12.30;99.90
42743;DHT22;28397;44.552;-0.848;2024-03-23T08:07:44;12.40;99.90
42743;DHT22;28397;44.552;-0.848;2024-03-23T08:10:10;12.50;99.90
42743;DHT22;28397;44.552;-0.848;2024-03-23T08:12:38;12.50;99.90
42743;DHT22;28397;44.552;-0.848;2024-03-23T08:15:04;12.30;99.90
42743;DHT22;28397;44.552;-0.848;2024-03-23T08:17:29;12.20;99.90
42743;DHT22;28397;44.552;-0.848;2024-03-23T08:19:55;12.20;99.90
42743;DHT22;28397;44.552;-0.848;2024-03-23T08:22:21;12.30;99.90
42743;DHT22;28397;44.552;-0.848;2024-03-23T08:24:47;12.30;99.90
42743;DHT22;28397;44.552;-0.848;2024-03-23T08:27:13;12.10;99.90
42743;DHT22;28397;44.552;-0.848;2024-03-23T08:29:38;12.10;99.90
42743;DHT22;28397;44.552;-0.848;2024-03-23T08:32:05;12.20;99.90
42743;DHT22;28397;44.552;-0.848;2024-03-23T08:34:31;12.10;99.90
42743;DHT22;28397;44.552;-0.848;2024-03-23T08:36:57;12.10;99.90
42743;DHT22;28397;44.552;-0.848;2024-03-23T08:39:22;12.10;99.90
42743;DHT22;28397;44.552;-0.848;2024-03-23T08:41:48;12.10;99.90
42743;DHT22;28397;44.552;-0.848;2024-03-23T08:44:14;12.20;99.90
42743;DHT22;28397;44.552;-0.848;2024-03-23T08:46:39;12.20;99.90
42743;DHT22;28397;44.552;-0.848;2024-03-23T08:49:05;12.10;99.90
42743;DHT22;28397;44.552;-0.848;2024-03-23T08:51:31;12.30;99.90
42743;DHT22;28397;44.552;-0.848;2024-03-23T08:53:56;12.40;99.90
42743;DHT22;28397;44.552;-0.848;2024-03-23T08:56:22;12.60;99.90
42743;DHT22;28397;44.552;-0.848;2024-03-23T08:58:48;12.60;99.90
42743;DHT22;28397;44.552;-0.848;2024-03-23T09:01:13;12.60;99.90
42743;DHT22;28397;44.552;-0.848;2024-03-23T09:03:39;12.60;99.90
42743;DHT22;28397;44.552;-0.848;2024-03-23T09:06:14;12.60;99.90
42743;DHT22;28397;44.552;-0.848;2024-03-23T09:08:40;12.70;99.90
42743;DHT22;28397;44.552;-0.848;2024-03-23T09:11:07;12.80;99.90
42743;DHT22;28397;44.552;-0.848;2024-03-23T09:13:34;12.90;99.90
42743;DHT22;28397;44.552;-0.848;2024-03-23T09:16:00;12.80;99.90
42743;DHT22;28397;44.552;-0.848;2024-03-23T09:18:26;12.80;99.90
42743;DHT22;28397;44.552;-0.848;2024-03-23T09:20:52;12.90;99.90
42743;DHT22;28397;44.552;-0.848;2024-03-23T09:23:21;13.00;99.90
42743;DHT22;28397;44.552;-0.848;2024-03-23T09:25:47;13.00;99.90
42743;DHT22;28397;44.552;-0.848;2024-03-23T09:28:12;13.00;99.90
42743;DHT22;28397;44.552;-0.848;2024-03-23T09:30:38;13.10;99.90
42743;DHT22;28397;44.552;-0.848;2024-03-23T09:33:08;13.10;99.90
42743;DHT22;28397;44.552;-0.848;2024-03-23T09:35:38;13.30;99.90
42743;DHT22;28397;44.552;-0.848;2024-03-23T09:38:04;13.40;99.90
42743;DHT22;28397;44.552;-0.848;2024-03-23T09:40:30;13.70;99.90
42743;DHT22;28397;44.552;-0.848;2024-03-23T09:42:55;13.90;99.90
42743;DHT22;28397;44.552;-0.848;2024-03-23T09:45:23;14.00;99.90
42743;DHT22;28397;44.552;-0.848;2024-03-23T09:47:51;14.20;99.90
42743;DHT22;28397;44.552;-0.848;2024-03-23T09:50:18;14.50;99.90
42743;DHT22;28397;44.552;-0.848;2024-03-23T09:52:46;14.40;99.90
42743;DHT22;28397;44.552;-0.848;2024-03-23T09:55:12;14.40;99.90
42743;DHT22;28397;44.552;-0.848;2024-03-23T09:57:39;14.30;99.90
42743;DHT22;28397;44.552;-0.848;2024-03-23T10:00:05;14.20;99.90
42743;DHT22;28397;44.552;-0.848;2024-03-23T10:02:32;14.00;99.90
42743;DHT22;28397;44.552;-0.848;2024-03-23T10:04:58;13.90;99.90
42743;DHT22;28397;44.552;-0.848;2024-03-23T10:07:23;13.80;99.90
42743;DHT22;28397;44.552;-0.848;2024-03-23T10:09:49;13.80;99.90
42743;DHT22;28397;44.552;-0.848;2024-03-23T10:12:19;13.80;99.90
42743;DHT22;28397;44.552;-0.848;2024-03-23T10:14:45;13.90;99.90
42743;DHT22;28397;44.552;-0.848;2024-03-23T10:17:22;13.90;99.90
42743;DHT22;28397;44.552;-0.848;2024-03-23T10:19:52;13.90;99.90
42743;DHT22;28397;44.552;-0.848;2024-03-23T10:22:19;13.80;99.90
42743;DHT22;28397;44.552;-0.848;2024-03-23T10:24:46;13.90;99.90
42743;DHT22;28397;44.552;-0.848;2024-03-23T10:27:21;13.80;99.90
42743;DHT22;28397;44.552;-0.848;2024-03-23T10:29:47;13.90;99.90
42743;DHT22;28397;44.552;-0.848;2024-03-23T10:32:15;14.00;99.90
42743;DHT22;28397;44.552;-0.848;2024-03-23T10:34:41;14.00;99.90
42743;DHT22;28397;44.552;-0.848;2024-03-23T10:37:07;14.00;99.90
42743;DHT22;28397;44.552;-0.848;2024-03-23T10:39:37;13.90;99.90
42743;DHT22;28397;44.552;-0.848;2024-03-23T10:42:04;13.90;99.90
42743;DHT22;28397;44.552;-0.848;2024-03-23T10:44:31;13.90;99.90
42743;DHT22;28397;44.552;-0.848;2024-03-23T10:46:58;13.80;99.90
42743;DHT22;28397;44.552;-0.848;2024-03-23T10:49:29;13.70;99.90
42743;DHT22;28397;44.552;-0.848;2024-03-23T10:52:05;13.80;99.90
42743;DHT22;28397;44.552;-0.848;2024-03-23T10:54:32;13.90;99.90
42743;DHT22;28397;44.552;-0.848;2024-03-23T10:57:11;13.80;99.90
42743;DHT22;28397;44.552;-0.848;2024-03-23T10:59:38;13.90;99.90
42743;DHT22;28397;44.552;-0.848;2024-03-23T11:02:05;14.00;99.90
42743;DHT22;28397;44.552;-0.848;2024-03-23T11:04:36;14.00;99.90
42743;DHT22;28397;44.552;-0.848;2024-03-23T11:09:50;14.00;99.90
42743;DHT22;28397;44.552;-0.848;2024-03-23T11:15:04;14.10;99.90
42743;DHT22;28397;44.552;-0.848;2024-03-23T11:17:30;14.10;99.90
42743;DHT22;28397;44.552;-0.848;2024-03-23T11:27:40;14.30;99.90
42743;DHT22;28397;44.552;-0.848;2024-03-23T11:30:20;14.30;99.90
42743;DHT22;28397;44.552;-0.848;2024-03-23T11:32:48;14.30;99.90
42743;DHT22;28397;44.552;-0.848;2024-03-23T11:38:21;14.60;99.90
42743;DHT22;28397;44.552;-0.848;2024-03-23T11:40:48;14.60;99.90
42743;DHT22;28397;44.552;-0.848;2024-03-23T11:43:19;14.50;99.90
42743;DHT22;28397;44.552;-0.848;2024-03-23T11:45:49;14.30;99.90
42743;DHT22;28397;44.552;-0.848;2024-03-23T11:48:20;14.00;99.90
42743;DHT22;28397;44.552;-0.848;2024-03-23T11:50:48;14.00;99.90
42743;DHT22;28397;44.552;-0.848;2024-03-23T11:53:21;14.30;99.90
42743;DHT22;28397;44.552;-0.848;2024-03-23T11:55:51;14.50;99.90
42743;DHT22;28397;44.552;-0.848;2024-03-23T11:58:21;14.60;99.90
42743;DHT22;28397;44.552;-0.848;2024-03-23T12:01:12;14.50;99.90
42743;DHT22;28397;44.552;-0.848;2024-03-23T12:03:37;14.30;99.90
42743;DHT22;28397;44.552;-0.848;2024-03-23T12:06:04;14.50;99.90
42743;DHT22;28397;44.552;-0.848;2024-03-23T12:08:31;14.60;99.90
42743;DHT22;28397;44.552;-0.848;2024-03-23T12:11:12;14.60;99.90
42743;DHT22;28397;44.552;-0.848;2024-03-23T12:13:39;14.50;99.90
42743;DHT22;28397;44.552;-0.848;2024-03-23T12:16:17;14.50;99.90
42743;DHT22;28397;44.552;-0.848;2024-03-23T12:18:44;14.60;99.90
42743;DHT22;28397;44.552;-0.848;2024-03-23T12:21:11;14.40;99.90
42743;DHT22;28397;44.552;-0.848;2024-03-23T12:23:39;14.30;99.90
42743;DHT22;28397;44.552;-0.848;2024-03-23T12:26:05;14.40;99.90
42743;DHT22;28397;44.552;-0.848;2024-03-23T12:28:32;14.50;99.90
42743;DHT22;28397;44.552;-0.848;2024-03-23T12:30:58;14.60;99.90
42743;DHT22;28397;44.552;-0.848;2024-03-23T12:33:24;14.70;99.90
42743;DHT22;28397;44.552;-0.848;2024-03-23T12:35:50;14.90;99.90
42743;DHT22;28397;44.552;-0.848;2024-03-23T12:38:16;15.00;99.90
42743;DHT22;28397;44.552;-0.848;2024-03-23T12:40:49;14.90;99.90
42743;DHT22;28397;44.552;-0.848;2024-03-23T12:43:15;14.80;99.90
42743;DHT22;28397;44.552;-0.848;2024-03-23T12:45:45;14.90;99.90
42743;DHT22;28397;44.552;-0.848;2024-03-23T12:48:11;14.90;99.90
42743;DHT22;28397;44.552;-0.848;2024-03-23T12:50:37;14.90;99.90
42743;DHT22;28397;44.552;-0.848;2024-03-23T12:53:03;15.00;99.90
42743;DHT22;28397;44.552;-0.848;2024-03-23T12:55:29;15.20;99.90
42743;DHT22;28397;44.552;-0.848;2024-03-23T12:57:54;15.40;99.90
42743;DHT22;28397;44.552;-0.848;2024-03-23T13:00:20;15.50;99.90
42743;DHT22;28397;44.552;-0.848;2024-03-23T13:02:46;15.50;99.90
42743;DHT22;28397;44.552;-0.848;2024-03-23T13:05:11;15.70;99.90
42743;DHT22;28397;44.552;-0.848;2024-03-23T13:07:37;15.70;99.90
42743;DHT22;28397;44.552;-0.848;2024-03-23T13:10:04;15.70;99.90
42743;DHT22;28397;44.552;-0.848;2024-03-23T13:12:31;15.60;99.90
42743;DHT22;28397;44.552;-0.848;2024-03-23T13:14:57;15.60;99.90
42743;DHT22;28397;44.552;-0.848;2024-03-23T13:17:22;15.70;99.90
42743;DHT22;28397;44.552;-0.848;2024-03-23T13:19:48;15.70;99.90
42743;DHT22;28397;44.552;-0.848;2024-03-23T13:22:13;15.60;99.90
42743;DHT22;28397;44.552;-0.848;2024-03-23T13:24:39;15.30;99.90
42743;DHT22;28397;44.552;-0.848;2024-03-23T13:27:05;15.20;99.90
42743;DHT22;28397;44.552;-0.848;2024-03-23T13:29:33;15.40;99.90
42743;DHT22;28397;44.552;-0.848;2024-03-23T13:32:00;15.40;99.90
42743;DHT22;28397;44.552;-0.848;2024-03-23T13:34:26;15.20;99.90
42743;DHT22;28397;44.552;-0.848;2024-03-23T13:36:51;15.10;99.90
42743;DHT22;28397;44.552;-0.848;2024-03-23T13:39:17;15.00;99.90
42743;DHT22;28397;44.552;-0.848;2024-03-23T13:41:46;15.10;99.90
42743;DHT22;28397;44.552;-0.848;2024-03-23T13:44:13;15.30;99.90
42743;DHT22;28397;44.552;-0.848;2024-03-23T13:46:40;15.30;99.90
42743;DHT22;28397;44.552;-0.848;2024-03-23T13:49:45;15.40;99.90
42743;DHT22;28397;44.552;-0.848;2024-03-23T13:52:06;15.60;99.90
42743;DHT22;28397;44.552;-0.848;2024-03-23T13:54:32;15.50;99.90
42743;DHT22;28397;44.552;-0.848;2024-03-23T13:56:58;15.20;99.90
42743;DHT22;28397;44.552;-0.848;2024-03-23T13:59:23;15.50;99.90
42743;DHT22;28397;44.552;-0.848;2024-03-23T14:01:50;15.70;99.90
42743;DHT22;28397;44.552;-0.848;2024-03-23T14:04:16;15.30;99.90
42743;DHT22;28397;44.552;-0.848;2024-03-23T14:06:43;15.30;99.90
42743;DHT22;28397;44.552;-0.848;2024-03-23T14:09:11;15.80;99.90
42743;DHT22;28397;44.552;-0.848;2024-03-23T14:11:37;15.80;99.90
42743;DHT22;28397;44.552;-0.848;2024-03-23T14:14:03;15.70;99.90
42743;DHT22;28397;44.552;-0.848;2024-03-23T14:16:30;15.50;99.90
42743;DHT22;28397;44.552;-0.848;2024-03-23T14:18:56;15.10;99.90
42743;DHT22;28397;44.552;-0.848;2024-03-23T14:21:22;15.10;99.90
42743;DHT22;28397;44.552;-0.848;2024-03-23T14:23:48;14.80;99.90
42743;DHT22;28397;44.552;-0.848;2024-03-23T14:26:14;14.90;99.90
42743;DHT22;28397;44.552;-0.848;2024-03-23T14:28:39;15.20;99.90
42743;DHT22;28397;44.552;-0.848;2024-03-23T14:31:05;15.20;99.90
42743;DHT22;28397;44.552;-0.848;2024-03-23T14:33:39;15.20;99.90
42743;DHT22;28397;44.552;-0.848;2024-03-23T14:36:14;15.10;99.90
42743;DHT22;28397;44.552;-0.848;2024-03-23T14:38:40;15.30;99.90
42743;DHT22;28397;44.552;-0.848;2024-03-23T14:41:06;15.40;99.90
42743;DHT22;28397;44.552;-0.848;2024-03-23T14:43:32;15.50;99.90
42743;DHT22;28397;44.552;-0.848;2024-03-23T14:46:14;15.70;99.90
42743;DHT22;28397;44.552;-0.848;2024-03-23T14:48:41;15.80;99.90
42743;DHT22;28397;44.552;-0.848;2024-03-23T14:51:08;15.90;99.90
42743;DHT22;28397;44.552;-0.848;2024-03-23T14:53:36;15.70;99.90
42743;DHT22;28397;44.552;-0.848;2024-03-23T14:56:03;15.80;99.90
42743;DHT22;28397;44.552;-0.848;2024-03-23T14:58:30;15.70;99.90
42743;DHT22;28397;44.552;-0.848;2024-03-23T15:01:02;15.80;99.90
42743;DHT22;28397;44.552;-0.848;2024-03-23T15:03:28;15.70;99.90
42743;DHT22;28397;44.552;-0.848;2024-03-23T15:05:55;15.60;99.90
42743;DHT22;28397;44.552;-0.848;2024-03-23T15:08:22;15.50;99.90
42743;DHT22;28397;44.552;-0.848;2024-03-23T15:10:48;15.40;99.90
42743;DHT22;28397;44.552;-0.848;2024-03-23T15:13:13;15.40;99.90
42743;DHT22;28397;44.552;-0.848;2024-03-23T15:15:43;15.30;99.90
42743;DHT22;28397;44.552;-0.848;2024-03-23T15:18:13;15.30;99.90
42743;DHT22;28397;44.552;-0.848;2024-03-23T15:20:40;15.30;99.90
42743;DHT22;28397;44.552;-0.848;2024-03-23T15:23:06;15.50;99.90
42743;DHT22;28397;44.552;-0.848;2024-03-23T15:25:32;15.30;99.90
42743;DHT22;28397;44.552;-0.848;2024-03-23T15:27:58;15.40;99.90
42743;DHT22;28397;44.552;-0.848;2024-03-23T15:30:25;15.30;99.90
42743;DHT22;28397;44.552;-0.848;2024-03-23T15:32:50;15.40;99.90
42743;DHT22;28397;44.552;-0.848;2024-03-23T15:35:16;15.60;99.90
42743;DHT22;28397;44.552;-0.848;2024-03-23T15:37:42;15.50;99.90
42743;DHT22;28397;44.552;-0.848;2024-03-23T15:40:09;15.50;99.90
42743;DHT22;28397;44.552;-0.848;2024-03-23T15:42:35;15.90;99.90
42743;DHT22;28397;44.552;-0.848;2024-03-23T15:45:01;16.10;99.90
42743;DHT22;28397;44.552;-0.848;2024-03-23T15:47:29;16.00;99.90
42743;DHT22;28397;44.552;-0.848;2024-03-23T15:49:54;15.70;99.90
42743;DHT22;28397;44.552;-0.848;2024-03-23T15:52:21;15.60;99.90
42743;DHT22;28397;44.552;-0.848;2024-03-23T15:54:46;15.80;99.90
42743;DHT22;28397;44.552;-0.848;2024-03-23T15:57:12;15.70;99.90
42743;DHT22;28397;44.552;-0.848;2024-03-23T15:59:41;15.50;99.90
42743;DHT22;28397;44.552;-0.848;2024-03-23T16:02:07;15.30;99.90
42743;DHT22;28397;44.552;-0.848;2024-03-23T16:04:32;15.30;99.90
42743;DHT22;28397;44.552;-0.848;2024-03-23T16:06:58;15.40;99.90
42743;DHT22;28397;44.552;-0.848;2024-03-23T16:09:24;15.30;99.90
42743;DHT22;28397;44.552;-0.848;2024-03-23T16:11:49;15.20;99.90
42743;DHT22;28397;44.552;-0.848;2024-03-23T16:14:15;15.00;99.90
42743;DHT22;28397;44.552;-0.848;2024-03-23T16:16:41;15.00;99.90
42743;DHT22;28397;44.552;-0.848;2024-03-23T16:19:06;15.20;99.90
42743;DHT22;28397;44.552;-0.848;2024-03-23T16:21:32;15.50;99.90
42743;DHT22;28397;44.552;-0.848;2024-03-23T16:23:57;15.90;99.90